• Join FlightAware (Why Join?)
  • Login
  • US Flag 
09:18AM EST


 

Airport Tracker/Info


-or-


 

Live Flight TrackerFlight Track Log ✈ VNR187 ✈ 19-Apr-2012 ✈ KBLM - KSAV

Flight Track Log - Related Links

Times and Time Zones

All times are in EDT time to prevent confusion due to time zone crossing. See the VNR187 flight status page for this flight to view local times or setup timezone preferences in your user account.

Time Position Orientation Groundspeed Altitude Reporting Facility
EDT Latitude Longitude Course Direction KTS MPH feet Rate Location/Type
09:33AM 40.0986 -74.1848 208° Southwest  Level FlightAware Approximate
09:34AM 40.0316 -74.2351 167° South  Level FlightAware Approximate
09:35AM 40.0286 -74.2342 216° Southwest 215 247 6,000  Level Washington Center
09:36AM 39.9731 -74.2867 216° Southwest 225 259 6,700 960 Climbing Washington Center
09:37AM 39.9214 -74.3361 215° Southwest 231 266 8,000 600 Climbing Washington Center
09:38AM 39.8617 -74.3914 216° Southwest 254 292 8,000  Level Washington Center
09:39AM 39.7978 -74.4519 216° Southwest 276 318 8,000 120 Level Washington Center
09:40AM 39.7336 -74.5122 215° Southwest 281 323 8,300 960 Climbing Washington Center
09:41AM 39.6800 -74.5617 217° Southwest 270 311 10,000 1,620 Climbing Washington Center
09:42AM 39.6242 -74.6164 232° Southwest 258 297 11,600 1,440 Climbing Washington Center
09:43AM 39.5850 -74.6814 226° Southwest 246 283 13,000 1,140 Climbing Washington Center
09:44AM 39.5356 -74.7467 211° Southwest 246 283 14,000 480 Climbing Washington Center
09:45AM 39.4692 -74.7986 209° Southwest 265 305 14,000 600 Level Washington Center
09:46AM 39.3967 -74.8503 211° Southwest 287 330 15,300 1,320 Climbing Washington Center
09:47AM 39.3344 -74.8994 209° Southwest 287 330 16,700 1,260 Climbing Washington Center
09:48AM 39.2700 -74.9456 217° Southwest 282 325 17,900 600 Climbing Washington Center
09:49AM 39.2058 -75.0078 226° Southwest 282 325 18,000  Climbing Washington Center
09:50AM 39.1436 -75.0911 222° Southwest 302 348 18,000 540 Level Washington Center
09:51AM 39.0792 -75.1664 227° Southwest 316 364 19,200 1,260 Climbing Washington Center
09:52AM 39.0233 -75.2442 199° South 311 358 20,600 1,260 Climbing Washington Center
09:53AM 38.9442 -75.2794 198° South 291 335 21,800 1,140 Climbing Washington Center
09:54AM 38.8669 -75.3117 197° South 291 335 23,000 1,080 Climbing Washington Center
09:55AM 38.7900 -75.3414 198° South 297 342 24,000 480 Climbing Washington Center
09:56AM 38.7047 -75.3761 197° South 307 353 24,000  Level Washington Center
09:57AM 38.6150 -75.4111 195° South 328 377 24,000  Level Washington Center
09:58AM 38.5211 -75.4431 196° South 344 396 24,000 660 Level Washington Center
09:59AM 38.4317 -75.4750 198° South 349 402 25,400 1,260 Climbing Washington Center
10:00AM 38.3503 -75.5097 214° Southwest 332 382 26,600 1,200 Climbing Washington Center
10:01AM 38.2817 -75.5678 216° Southwest 311 358 27,800 660 Climbing Washington Center
10:02AM 38.2128 -75.6314 216° Southwest 310 357 28,000 60 Climbing Washington Center
10:03AM 38.1397 -75.7000 217° Southwest 320 368 28,000  Level Washington Center
10:04AM 38.0625 -75.7736 217° Southwest 333 383 28,000  Level Washington Center
10:05AM 37.9853 -75.8472 216° Southwest 344 396 28,000  Level Washington Center
10:06AM 37.9058 -75.9208 216° Southwest 355 409 28,000  Level Washington Center
10:07AM 37.8325 -75.9889 218° Southwest 361 415 28,000  Level Washington Center
10:08AM 37.7489 -76.0725 218° Southwest 361 415 28,000  Level Washington Center
10:09AM 37.6714 -76.1481 212° Southwest 361 415 28,000  Level Washington Center
10:10AM 37.5961 -76.2078 216° Southwest 361 415 28,000  Level Washington Center
10:11AM 37.5164 -76.2806 217° Southwest 361 415 28,000  Level Washington Center
10:12AM 37.4386 -76.3531 216° Southwest 361 415 28,000  Level Washington Center
10:13AM 37.3611 -76.4228 216° Southwest 361 415 28,000  Level Washington Center
10:14AM 37.2814 -76.4950 217° Southwest 361 415 28,000  Level Washington Center
10:15AM 37.2036 -76.5697 215° Southwest 361 415 28,000  Level Washington Center
10:16AM 37.1258 -76.6392 216° Southwest 361 415 28,000  Level Washington Center
10:17AM 37.0481 -76.7108 216° Southwest 361 415 28,000  Level Washington Center
10:18AM 36.9681 -76.7825 216° Southwest 361 415 28,000  Level Washington Center
10:19AM 36.8836 -76.8592 215° Southwest 361 415 28,000  Level Washington Center
10:20AM 36.8058 -76.9278 216° Southwest 361 415 28,000  Level Washington Center
10:21AM 36.7342 -76.9939 216° Southwest 361 415 28,000  Level Washington Center
10:22AM 36.6561 -77.0650 217° Southwest 356 410 28,000  Level Washington Center
10:23AM 36.5800 -77.1361 219° Southwest 356 410 28,000  Level Washington Center
10:24AM 36.5061 -77.2094 217° Southwest 351 404 28,000  Level Washington Center
10:25AM 36.4278 -77.2828 219° Southwest 351 404 28,000  Level Washington Center
10:26AM 36.3539 -77.3561 216° Southwest 351 404 28,000  Level Washington Center
10:27AM 36.2756 -77.4264 218° Southwest 351 404 28,000  Level Washington Center
10:28AM 36.2036 -77.4967 219° Southwest 344 396 28,000  Level Washington Center
10:29AM 36.1272 -77.5722 216° Southwest 349 402 28,000  Level Washington Center
10:30AM 36.0489 -77.6422 216° Southwest 349 402 28,000  Level Washington Center
10:31AM 35.9661 -77.7169 212° Southwest 349 402 28,000  Level Washington Center
10:32AM 35.8814 -77.7814 212° Southwest 349 402 28,000  Level Washington Center
10:33AM 35.8011 -77.8431 213° Southwest 354 407 28,000  Level Washington Center
10:34AM 35.7183 -77.9097 212° Southwest 354 407 28,000  Level Washington Center
10:35AM 35.6358 -77.9739 212° Southwest 354 407 28,000  Level Washington Center
10:36AM 35.5553 -78.0353 212° Southwest 354 407 28,000  Level Washington Center
10:37AM 35.4725 -78.0992 215° Southwest 354 407 28,000  Level Washington Center
10:38AM 35.4003 -78.1606 218° Southwest 354 407 28,000  Level Washington Center
10:39AM 35.3258 -78.2319 218° Southwest 349 402 28,000  Level Washington Center
10:40AM 35.2489 -78.3058 219° Southwest 349 402 28,000  Level Washington Center
10:41AM 35.1742 -78.3794 219° Southwest 354 407 28,000  Level Washington Center
10:42AM 35.0931 -78.4606 218° Southwest 348 400 28,000  Level Washington Center
10:43AM 35.0183 -78.5314 219° Southwest 348 400 28,000  Level Washington Center
10:44AM 34.9456 -78.6022 219° Southwest 348 400 28,000  Level Washington Center
10:45AM 34.8708 -78.6753 217° Southwest 348 400 28,000  Level Washington Center
10:46AM 34.7936 -78.7458 218° Southwest 348 400 28,000  Level Washington Center
10:48AM 34.6186 -78.9142 217° Southwest 350 403 28,000  Level Jacksonville Center
10:49AM 34.5436 -78.9831 222° Southwest 350 403 28,000  Level Jacksonville Center
10:50AM 34.4750 -79.0592 217° Southwest 344 396 28,000  Level Jacksonville Center
10:51AM 34.4000 -79.1281 218° Southwest 344 396 28,000  Level Jacksonville Center
10:52AM 34.3228 -79.2017 218° Southwest 344 396 28,000  Level Jacksonville Center
10:53AM 34.2478 -79.2728 217° Southwest 349 402 28,000  Level Jacksonville Center
10:54AM 34.1703 -79.3436 217° Southwest 349 402 28,000  Level Jacksonville Center
10:56AM 34.0281 -79.4747 217° Southwest 349 402 28,000  Level Jacksonville Center
10:57AM 33.9525 -79.5428 219° Southwest 344 396 28,000  Level Jacksonville Center
10:58AM 33.8794 -79.6131 218° Southwest 344 396 28,000  Level Jacksonville Center
10:59AM 33.8039 -79.6833 218° Southwest 339 390 28,000  Level Jacksonville Center
11:00AM 33.7286 -79.7536 217° Southwest 339 390 28,000  Level Jacksonville Center
11:01AM 33.6550 -79.8211 218° Southwest 339 390 28,000  Level Jacksonville Center
11:02AM 33.5794 -79.8911 218° Southwest 339 390 28,000  Level Jacksonville Center
11:03AM 33.5061 -79.9608 217° Southwest 339 390 28,000  Level Jacksonville Center
11:04AM 33.4283 -80.0306 218° Southwest 339 390 28,000  Level Jacksonville Center
11:05AM 33.3567 -80.0975 219° Southwest 339 390 28,000 -720 Level Jacksonville Center
11:06AM 33.2811 -80.1694 217° Southwest 339 390 26,600 -1,500 Descending Jacksonville Center
11:07AM 33.2014 -80.2414 216° Southwest 344 396 25,100 -1,320 Descending Jacksonville Center
11:08AM 33.1172 -80.3133 218° Southwest 352 405 24,000 -600 Descending Jacksonville Center
11:09AM 33.0456 -80.3797 217° Southwest 352 405 24,000 -780 Level Jacksonville Center
11:10AM 32.9633 -80.4539 192° South 352 405 22,500 -1,500 Descending Jacksonville Center
11:11AM 32.8719 -80.4761 187° South 336 387 21,000 -1,800 Descending Jacksonville Center
11:12AM 32.7825 -80.4883 205° Southwest 331 381 19,000 -2,040 Descending Jacksonville Center
11:13AM 32.7039 -80.5325 224° Southwest 326 375 17,000 -1,800 Descending Jacksonville Center
11:14AM 32.6447 -80.6006 225° Southwest 300 345 15,500 -1,500 Descending Jacksonville Center
11:15AM 32.5894 -80.6661 225° Southwest 290 334 14,000 -1,500 Descending Jacksonville Center
11:16AM 32.5344 -80.7314 225° Southwest 290 334 12,500 -1,500 Descending Jacksonville Center
11:17AM 32.4792 -80.7969 227° Southwest 284 327 11,000 -1,500 Descending Jacksonville Center
11:18AM 32.4278 -80.8619 242° Southwest 279 321 9,500 -1,500 Descending Jacksonville Center
11:19AM 32.3917 -80.9417 244° Southwest 279 321 8,000 -1,500 Descending Jacksonville Center
11:20AM 32.3594 -81.0208 243° Southwest 266 306 6,500 -1,260 Descending Jacksonville Center
11:21AM 32.3292 -81.0903 244° Southwest 266 306 5,500 -1,020 Descending Jacksonville Center
11:22AM 32.3008 -81.1597 244° Southwest 250 288 4,500 -780 Descending Jacksonville Center
11:23AM 32.2706 -81.2317 246° West 236 272 4,000 -840 Descending Jacksonville Center
11:24AM 32.2442 -81.3008 244° Southwest 231 266 2,900 -1,020 Descending Jacksonville Center
11:25AM 32.2139 -81.3750 244° Southwest 238 274 2,000 -480 Descending Jacksonville Center
11:26AM 32.1894 -81.4344 176° South 231 266 2,000  Level Jacksonville Center
11:27AM 32.1372 -81.4303 102° East 187 215 2,000  Level Jacksonville Center
11:28AM 32.1283 -81.3814 91° East 133 153 2,000 -60 Level Jacksonville Center
11:29AM 32.1278 -81.3325 91° East 145 167 1,900 -420 Descending Jacksonville Center
11:30AM 32.1272 -81.2956 91° East 138 159 1,200 -660 Descending Jacksonville Center
11:31AM 32.1267 -81.2539 87° East 133 153 600 -540 Descending Jacksonville Center
11:32AM 32.1283 -81.2122 64° Northeast 128 147 200 -420 Descending Jacksonville Center
11:40AM 32.4120 -80.5122 245° Southwest  Level FlightAware Approximate
11:41AM 32.3732 -80.6088 245° Southwest  Level FlightAware Approximate